Terminal Aerodrome Forecast
Issued by NWS

Home | Current Version | Previous Version | Text Only | Print | Product List | Glossary On
Versions: 1 2 3 4 5 6 7 8 9 10 11 12 13 14 15 16 17 18 19 20 21 22 23 24
000
FTUS44 KOUN 162323
TAFHBR
TAF
KHBR 162323Z 1700/1724 18017G24KT P6SM SCT050 BKN100
     FM170400 16014G20KT P6SM BKN025
     FM170800 17013KT 5SM BR OVC008
     FM171500 18008KT P6SM OVC012
     FM172000 23007KT P6SM SCT025=

USA.gov is the U.S. government's official web portal to all federal, state and local government web resources and services.